Ottawa Macdonald-Cartier International Airport
CYOW : now visible

Airfield :











YOU CAN JOIN US ON...

 
LOGIN :

Register | Disclaimer

   EN    FR    IT 

 









Legend :    VFR   Marginal VFR   IFR   Intensive IFR   Very Intensive IFR
Visi :
Ceiling :
>= 8 km
>= 3000ft
5 to 8 km
1000 to 3000 ft
1500m to 5 km
500 to 1000 ft
800 to 1500m
200 to 500 ft
< 800m
< 200 ft
Symbols :   Thunderstorms  Fog  Heavy snow  Heavy precipitations  Wind > 20 kt






- Airport Elevation : 374 ft
- IATA code : YOW


CYOW - Ottawa Macdonald-Cartier International

CURRENT METAR :
  • 290700Z 25003KT 15SM OVC026 M02/M06 A3015 RMK SC8 SLP219

EXPIRED METARs :
  • 290600Z 20002KT 15SM OVC025 M02/M06 A3012 RMK SC8 SLP208
  • 290500Z 26004KT 15SM OVC025 M02/M06 A3012 RMK SC8 SLP206

TAF TAF CYOW
Valid from the 29 at 06:00 until the 30 at 06:00 UTC


290541Z 2906/3006 VRB03KT P6SM BKN030
TEMPO 2906/2914 OVC020
BECMG 2916/2918 09007KT
FM300200 09010KT P6SM SCT030 BKN180 RMK NXT FCST BY 290900Z
CZUL FIR / North America



MET'MAP, your aeronautical weather chart ! - Copyright ORBIFLY December 2007 - Disclaimer

ORBIFLY MET'MAP TEAM :

Programming & Development : Alexandra Zaïnal
Original concept : Baudouin d'Aumeries
Technical & hardware support : Manuel Goepfert
Assistance : Marc-Olivier Méhu




SOURCES & CREDITS :

   NOAA       Earth
Advisory